sensor_id;sensor_type;location;lat;lon;timestamp;temperature;humidity
17599;DHT22;8918;52.092;5.232;2023-04-15T00:01:25;9.40;99.90
17599;DHT22;8918;52.092;5.232;2023-04-15T00:03:53;9.30;99.90
17599;DHT22;8918;52.092;5.232;2023-04-15T00:06:20;9.30;99.90
17599;DHT22;8918;52.092;5.232;2023-04-15T00:08:46;9.30;99.90
17599;DHT22;8918;52.092;5.232;2023-04-15T00:11:12;9.30;99.90
17599;DHT22;8918;52.092;5.232;2023-04-15T00:13:38;9.30;99.90
17599;DHT22;8918;52.092;5.232;2023-04-15T00:16:04;9.20;99.90
17599;DHT22;8918;52.092;5.232;2023-04-15T00:18:30;9.20;99.90
17599;DHT22;8918;52.092;5.232;2023-04-15T00:20:56;9.20;99.90
17599;DHT22;8918;52.092;5.232;2023-04-15T00:23:22;9.10;99.90
17599;DHT22;8918;52.092;5.232;2023-04-15T00:25:47;9.10;99.90
17599;DHT22;8918;52.092;5.232;2023-04-15T00:28:13;9.10;99.90
17599;DHT22;8918;52.092;5.232;2023-04-15T00:30:39;9.10;99.90
17599;DHT22;8918;52.092;5.232;2023-04-15T00:33:04;9.10;99.90
17599;DHT22;8918;52.092;5.232;2023-04-15T00:35:30;9.00;99.90
17599;DHT22;8918;52.092;5.232;2023-04-15T00:37:59;9.00;99.90
17599;DHT22;8918;52.092;5.232;2023-04-15T00:40:25;8.90;99.90
17599;DHT22;8918;52.092;5.232;2023-04-15T00:42:51;8.90;99.90
17599;DHT22;8918;52.092;5.232;2023-04-15T00:45:17;8.90;99.90
17599;DHT22;8918;52.092;5.232;2023-04-15T00:47:43;8.90;99.90
17599;DHT22;8918;52.092;5.232;2023-04-15T00:50:10;8.90;99.90
17599;DHT22;8918;52.092;5.232;2023-04-15T00:52:37;8.80;99.90
17599;DHT22;8918;52.092;5.232;2023-04-15T00:55:03;8.80;99.90
17599;DHT22;8918;52.092;5.232;2023-04-15T00:57:30;8.80;99.90
17599;DHT22;8918;52.092;5.232;2023-04-15T00:59:56;8.70;99.90
17599;DHT22;8918;52.092;5.232;2023-04-15T01:02:22;8.60;99.90
17599;DHT22;8918;52.092;5.232;2023-04-15T01:04:48;8.60;99.90
17599;DHT22;8918;52.092;5.232;2023-04-15T01:07:14;8.60;99.90
17599;DHT22;8918;52.092;5.232;2023-04-15T01:09:40;8.60;99.90
17599;DHT22;8918;52.092;5.232;2023-04-15T01:12:07;8.60;99.90
17599;DHT22;8918;52.092;5.232;2023-04-15T01:14:34;8.60;99.90
17599;DHT22;8918;52.092;5.232;2023-04-15T01:17:00;8.60;99.90
17599;DHT22;8918;52.092;5.232;2023-04-15T01:19:26;8.50;99.90
17599;DHT22;8918;52.092;5.232;2023-04-15T01:21:52;8.50;99.90
17599;DHT22;8918;52.092;5.232;2023-04-15T01:24:18;8.50;99.90
17599;DHT22;8918;52.092;5.232;2023-04-15T01:26:44;8.50;99.90
17599;DHT22;8918;52.092;5.232;2023-04-15T01:29:09;8.40;99.90
17599;DHT22;8918;52.092;5.232;2023-04-15T01:31:35;8.40;99.90
17599;DHT22;8918;52.092;5.232;2023-04-15T01:34:00;8.40;99.90
17599;DHT22;8918;52.092;5.232;2023-04-15T01:36:26;8.40;99.90
17599;DHT22;8918;52.092;5.232;2023-04-15T01:38:53;8.30;99.90
17599;DHT22;8918;52.092;5.232;2023-04-15T01:41:28;8.30;99.90
17599;DHT22;8918;52.092;5.232;2023-04-15T01:43:54;8.30;99.90
17599;DHT22;8918;52.092;5.232;2023-04-15T01:46:20;8.30;99.90
17599;DHT22;8918;52.092;5.232;2023-04-15T01:48:45;8.20;99.90
17599;DHT22;8918;52.092;5.232;2023-04-15T01:51:11;8.20;99.90
17599;DHT22;8918;52.092;5.232;2023-04-15T01:53:37;8.20;99.90
17599;DHT22;8918;52.092;5.232;2023-04-15T01:56:03;8.20;99.90
17599;DHT22;8918;52.092;5.232;2023-04-15T01:58:28;8.20;99.90
17599;DHT22;8918;52.092;5.232;2023-04-15T02:00:54;8.20;99.90
17599;DHT22;8918;52.092;5.232;2023-04-15T02:03:21;8.20;99.90
17599;DHT22;8918;52.092;5.232;2023-04-15T02:05:46;8.10;99.90
17599;DHT22;8918;52.092;5.232;2023-04-15T02:08:12;8.10;99.90
17599;DHT22;8918;52.092;5.232;2023-04-15T02:10:37;8.10;99.90
17599;DHT22;8918;52.092;5.232;2023-04-15T02:13:03;8.00;99.90
17599;DHT22;8918;52.092;5.232;2023-04-15T02:15:29;8.00;99.90
17599;DHT22;8918;52.092;5.232;2023-04-15T02:17:54;8.00;99.90
17599;DHT22;8918;52.092;5.232;2023-04-15T02:20:20;8.00;99.90
17599;DHT22;8918;52.092;5.232;2023-04-15T02:22:46;7.90;99.90
17599;DHT22;8918;52.092;5.232;2023-04-15T02:25:13;7.90;99.90
17599;DHT22;8918;52.092;5.232;2023-04-15T02:27:39;7.90;99.90
17599;DHT22;8918;52.092;5.232;2023-04-15T02:30:05;7.90;99.90
17599;DHT22;8918;52.092;5.232;2023-04-15T02:32:32;7.90;99.90
17599;DHT22;8918;52.092;5.232;2023-04-15T02:35:02;7.80;99.90
17599;DHT22;8918;52.092;5.232;2023-04-15T02:37:28;7.80;99.90
17599;DHT22;8918;52.092;5.232;2023-04-15T02:39:55;7.70;99.90
17599;DHT22;8918;52.092;5.232;2023-04-15T02:42:20;7.70;99.90
17599;DHT22;8918;52.092;5.232;2023-04-15T02:44:46;7.70;99.90
17599;DHT22;8918;52.092;5.232;2023-04-15T02:47:12;7.60;99.90
17599;DHT22;8918;52.092;5.232;2023-04-15T02:49:38;7.60;99.90
17599;DHT22;8918;52.092;5.232;2023-04-15T02:52:04;7.60;99.90
17599;DHT22;8918;52.092;5.232;2023-04-15T02:54:30;7.60;99.90
17599;DHT22;8918;52.092;5.232;2023-04-15T02:56:58;7.60;99.90
17599;DHT22;8918;52.092;5.232;2023-04-15T02:59:24;7.60;99.90
17599;DHT22;8918;52.092;5.232;2023-04-15T03:01:49;7.50;99.90
17599;DHT22;8918;52.092;5.232;2023-04-15T03:04:15;7.50;99.90
17599;DHT22;8918;52.092;5.232;2023-04-15T03:06:41;7.50;99.90
17599;DHT22;8918;52.092;5.232;2023-04-15T03:09:06;7.50;99.90
17599;DHT22;8918;52.092;5.232;2023-04-15T03:11:32;7.50;99.90
17599;DHT22;8918;52.092;5.232;2023-04-15T03:13:58;7.50;99.90
17599;DHT22;8918;52.092;5.232;2023-04-15T03:16:24;7.40;99.90
17599;DHT22;8918;52.092;5.232;2023-04-15T03:18:50;7.40;99.90
17599;DHT22;8918;52.092;5.232;2023-04-15T03:21:15;7.40;99.90
17599;DHT22;8918;52.092;5.232;2023-04-15T03:23:41;7.40;99.90
17599;DHT22;8918;52.092;5.232;2023-04-15T03:26:07;7.40;99.90
17599;DHT22;8918;52.092;5.232;2023-04-15T03:28:32;7.40;99.90
17599;DHT22;8918;52.092;5.232;2023-04-15T03:30:58;7.30;99.90
17599;DHT22;8918;52.092;5.232;2023-04-15T03:33:25;7.30;99.90
17599;DHT22;8918;52.092;5.232;2023-04-15T03:35:51;7.30;99.90
17599;DHT22;8918;52.092;5.232;2023-04-15T03:38:17;7.30;99.90
17599;DHT22;8918;52.092;5.232;2023-04-15T03:40:44;7.20;99.90
17599;DHT22;8918;52.092;5.232;2023-04-15T03:43:10;7.20;99.90
17599;DHT22;8918;52.092;5.232;2023-04-15T03:45:36;7.20;99.90
17599;DHT22;8918;52.092;5.232;2023-04-15T03:48:02;7.20;99.90
17599;DHT22;8918;52.092;5.232;2023-04-15T03:50:27;7.10;99.90
17599;DHT22;8918;52.092;5.232;2023-04-15T03:52:53;7.10;99.90
17599;DHT22;8918;52.092;5.232;2023-04-15T03:55:18;7.10;99.90
17599;DHT22;8918;52.092;5.232;2023-04-15T03:57:44;7.10;99.90
17599;DHT22;8918;52.092;5.232;2023-04-15T04:00:11;7.10;99.90
17599;DHT22;8918;52.092;5.232;2023-04-15T04:02:36;7.10;99.90
17599;DHT22;8918;52.092;5.232;2023-04-15T04:05:02;7.10;99.90
17599;DHT22;8918;52.092;5.232;2023-04-15T04:07:28;7.00;99.90
17599;DHT22;8918;52.092;5.232;2023-04-15T04:09:56;7.00;99.90
17599;DHT22;8918;52.092;5.232;2023-04-15T04:12:22;7.00;99.90
17599;DHT22;8918;52.092;5.232;2023-04-15T04:14:47;7.00;99.90
17599;DHT22;8918;52.092;5.232;2023-04-15T04:17:13;6.90;99.90
17599;DHT22;8918;52.092;5.232;2023-04-15T04:19:38;6.90;99.90
17599;DHT22;8918;52.092;5.232;2023-04-15T04:22:04;6.90;99.90
17599;DHT22;8918;52.092;5.232;2023-04-15T04:24:30;6.90;99.90
17599;DHT22;8918;52.092;5.232;2023-04-15T04:26:56;6.80;99.90
17599;DHT22;8918;52.092;5.232;2023-04-15T04:29:21;6.80;99.90
17599;DHT22;8918;52.092;5.232;2023-04-15T04:31:47;6.80;99.90
17599;DHT22;8918;52.092;5.232;2023-04-15T04:34:14;6.70;99.90
17599;DHT22;8918;52.092;5.232;2023-04-15T04:36:39;6.70;99.90
17599;DHT22;8918;52.092;5.232;2023-04-15T04:39:05;6.70;99.90
17599;DHT22;8918;52.092;5.232;2023-04-15T04:41:30;6.60;99.90
17599;DHT22;8918;52.092;5.232;2023-04-15T04:43:56;6.60;99.90
17599;DHT22;8918;52.092;5.232;2023-04-15T04:46:22;6.50;99.90
17599;DHT22;8918;52.092;5.232;2023-04-15T04:48:48;6.50;99.90
17599;DHT22;8918;52.092;5.232;2023-04-15T04:51:14;6.50;99.90
17599;DHT22;8918;52.092;5.232;2023-04-15T04:53:40;6.50;99.90
17599;DHT22;8918;52.092;5.232;2023-04-15T04:56:07;6.40;99.90
17599;DHT22;8918;52.092;5.232;2023-04-15T04:58:33;6.40;99.90
17599;DHT22;8918;52.092;5.232;2023-04-15T05:00:58;6.40;99.90
17599;DHT22;8918;52.092;5.232;2023-04-15T05:03:24;6.40;99.90
17599;DHT22;8918;52.092;5.232;2023-04-15T05:05:49;6.40;99.90
17599;DHT22;8918;52.092;5.232;2023-04-15T05:08:15;6.40;99.90
17599;DHT22;8918;52.092;5.232;2023-04-15T05:10:41;6.40;99.90
17599;DHT22;8918;52.092;5.232;2023-04-15T05:13:06;6.30;99.90
17599;DHT22;8918;52.092;5.232;2023-04-15T05:15:32;6.30;99.90
17599;DHT22;8918;52.092;5.232;2023-04-15T05:17:59;6.30;99.90
17599;DHT22;8918;52.092;5.232;2023-04-15T05:20:25;6.30;99.90
17599;DHT22;8918;52.092;5.232;2023-04-15T05:22:50;6.30;99.90
17599;DHT22;8918;52.092;5.232;2023-04-15T05:25:16;6.30;99.90
17599;DHT22;8918;52.092;5.232;2023-04-15T05:27:42;6.30;99.90
17599;DHT22;8918;52.092;5.232;2023-04-15T05:30:08;6.20;99.90
17599;DHT22;8918;52.092;5.232;2023-04-15T05:32:33;6.20;99.90
17599;DHT22;8918;52.092;5.232;2023-04-15T05:34:59;6.20;99.90
17599;DHT22;8918;52.092;5.232;2023-04-15T05:37:25;6.20;99.90
17599;DHT22;8918;52.092;5.232;2023-04-15T05:39:51;6.20;99.90
17599;DHT22;8918;52.092;5.232;2023-04-15T05:42:16;6.20;99.90
17599;DHT22;8918;52.092;5.232;2023-04-15T05:44:42;6.20;99.90
17599;DHT22;8918;52.092;5.232;2023-04-15T05:47:08;6.10;99.90
17599;DHT22;8918;52.092;5.232;2023-04-15T05:49:34;6.10;99.90
17599;DHT22;8918;52.092;5.232;2023-04-15T05:52:00;6.10;99.90
17599;DHT22;8918;52.092;5.232;2023-04-15T05:54:26;6.10;99.90
17599;DHT22;8918;52.092;5.232;2023-04-15T05:56:52;6.10;99.90
17599;DHT22;8918;52.092;5.232;2023-04-15T05:59:18;6.10;99.90
17599;DHT22;8918;52.092;5.232;2023-04-15T06:01:43;6.20;99.90
17599;DHT22;8918;52.092;5.232;2023-04-15T06:04:09;6.20;99.90
17599;DHT22;8918;52.092;5.232;2023-04-15T06:06:36;6.20;99.90
17599;DHT22;8918;52.092;5.232;2023-04-15T06:09:01;6.20;99.90
17599;DHT22;8918;52.092;5.232;2023-04-15T06:11:27;6.20;99.90
17599;DHT22;8918;52.092;5.232;2023-04-15T06:13:52;6.20;99.90
17599;DHT22;8918;52.092;5.232;2023-04-15T06:16:18;6.20;99.90
17599;DHT22;8918;52.092;5.232;2023-04-15T06:18:43;6.30;99.90
17599;DHT22;8918;52.092;5.232;2023-04-15T06:21:09;6.30;99.90
17599;DHT22;8918;52.092;5.232;2023-04-15T06:23:35;6.40;99.90
17599;DHT22;8918;52.092;5.232;2023-04-15T06:26:01;6.40;99.90
17599;DHT22;8918;52.092;5.232;2023-04-15T06:28:27;6.50;99.90
17599;DHT22;8918;52.092;5.232;2023-04-15T06:30:53;6.50;99.90
17599;DHT22;8918;52.092;5.232;2023-04-15T06:33:19;6.60;99.90
17599;DHT22;8918;52.092;5.232;2023-04-15T06:35:45;6.70;99.90
17599;DHT22;8918;52.092;5.232;2023-04-15T06:38:10;6.80;99.90
17599;DHT22;8918;52.092;5.232;2023-04-15T06:40:36;6.90;99.90
17599;DHT22;8918;52.092;5.232;2023-04-15T06:43:01;7.00;99.90
17599;DHT22;8918;52.092;5.232;2023-04-15T06:45:29;7.10;99.90
17599;DHT22;8918;52.092;5.232;2023-04-15T06:47:54;7.20;99.90
17599;DHT22;8918;52.092;5.232;2023-04-15T06:50:20;7.30;99.90
17599;DHT22;8918;52.092;5.232;2023-04-15T06:52:45;7.30;99.90
17599;DHT22;8918;52.092;5.232;2023-04-15T06:55:11;7.40;99.90
17599;DHT22;8918;52.092;5.232;2023-04-15T06:57:37;7.50;99.90
17599;DHT22;8918;52.092;5.232;2023-04-15T07:00:03;7.60;99.90
17599;DHT22;8918;52.092;5.232;2023-04-15T07:02:30;7.70;99.90
17599;DHT22;8918;52.092;5.232;2023-04-15T07:04:55;7.80;99.90
17599;DHT22;8918;52.092;5.232;2023-04-15T07:07:21;7.90;99.90
17599;DHT22;8918;52.092;5.232;2023-04-15T07:09:46;8.00;99.90
17599;DHT22;8918;52.092;5.232;2023-04-15T07:12:12;8.00;99.90
17599;DHT22;8918;52.092;5.232;2023-04-15T07:14:38;8.10;99.90
17599;DHT22;8918;52.092;5.232;2023-04-15T07:17:03;8.20;99.90
17599;DHT22;8918;52.092;5.232;2023-04-15T07:19:29;8.30;99.90
17599;DHT22;8918;52.092;5.232;2023-04-15T07:21:54;8.40;99.90
17599;DHT22;8918;52.092;5.232;2023-04-15T07:24:20;8.40;99.90
17599;DHT22;8918;52.092;5.232;2023-04-15T07:26:47;8.50;99.90
17599;DHT22;8918;52.092;5.232;2023-04-15T07:29:13;8.50;99.90
17599;DHT22;8918;52.092;5.232;2023-04-15T07:31:39;8.60;99.90
17599;DHT22;8918;52.092;5.232;2023-04-15T07:34:06;8.70;99.90
17599;DHT22;8918;52.092;5.232;2023-04-15T07:36:32;8.80;99.90
17599;DHT22;8918;52.092;5.232;2023-04-15T07:38:57;8.90;99.90
17599;DHT22;8918;52.092;5.232;2023-04-15T07:41:23;9.10;99.90
17599;DHT22;8918;52.092;5.232;2023-04-15T07:43:50;9.20;99.90
17599;DHT22;8918;52.092;5.232;2023-04-15T07:46:15;9.40;99.90
17599;DHT22;8918;52.092;5.232;2023-04-15T07:48:41;9.50;99.90
17599;DHT22;8918;52.092;5.232;2023-04-15T07:51:07;9.70;99.90
17599;DHT22;8918;52.092;5.232;2023-04-15T07:53:33;9.80;99.90
17599;DHT22;8918;52.092;5.232;2023-04-15T07:55:58;9.90;99.90
17599;DHT22;8918;52.092;5.232;2023-04-15T07:58:24;10.00;99.90
17599;DHT22;8918;52.092;5.232;2023-04-15T08:00:50;10.20;99.90
17599;DHT22;8918;52.092;5.232;2023-04-15T08:03:16;10.30;99.90
17599;DHT22;8918;52.092;5.232;2023-04-15T08:05:41;10.50;99.90
17599;DHT22;8918;52.092;5.232;2023-04-15T08:08:07;10.60;99.90
17599;DHT22;8918;52.092;5.232;2023-04-15T08:10:34;10.60;99.90
17599;DHT22;8918;52.092;5.232;2023-04-15T08:12:59;10.70;99.90
17599;DHT22;8918;52.092;5.232;2023-04-15T08:15:25;10.80;99.90
17599;DHT22;8918;52.092;5.232;2023-04-15T08:17:51;10.80;99.90
17599;DHT22;8918;52.092;5.232;2023-04-15T08:20:18;10.90;99.90
17599;DHT22;8918;52.092;5.232;2023-04-15T08:22:44;11.00;99.90
17599;DHT22;8918;52.092;5.232;2023-04-15T08:25:12;11.10;99.90
17599;DHT22;8918;52.092;5.232;2023-04-15T08:27:37;11.20;99.90
17599;DHT22;8918;52.092;5.232;2023-04-15T08:30:03;11.20;99.90
17599;DHT22;8918;52.092;5.232;2023-04-15T08:32:30;11.30;99.90
17599;DHT22;8918;52.092;5.232;2023-04-15T08:34:56;11.40;99.90
17599;DHT22;8918;52.092;5.232;2023-04-15T08:37:21;11.60;99.90
17599;DHT22;8918;52.092;5.232;2023-04-15T08:39:47;11.70;99.90
17599;DHT22;8918;52.092;5.232;2023-04-15T08:42:16;11.70;99.90
17599;DHT22;8918;52.092;5.232;2023-04-15T08:44:44;11.70;99.90
17599;DHT22;8918;52.092;5.232;2023-04-15T08:47:12;11.70;99.90
17599;DHT22;8918;52.092;5.232;2023-04-15T08:49:42;11.80;99.90
17599;DHT22;8918;52.092;5.232;2023-04-15T08:52:08;11.90;99.90
17599;DHT22;8918;52.092;5.232;2023-04-15T08:54:34;12.00;99.90
17599;DHT22;8918;52.092;5.232;2023-04-15T08:57:00;12.10;99.90
17599;DHT22;8918;52.092;5.232;2023-04-15T08:59:29;12.10;99.90
17599;DHT22;8918;52.092;5.232;2023-04-15T09:01:56;12.20;99.90
17599;DHT22;8918;52.092;5.232;2023-04-15T09:04:22;12.30;99.90
17599;DHT22;8918;52.092;5.232;2023-04-15T09:06:48;12.40;99.90
17599;DHT22;8918;52.092;5.232;2023-04-15T09:09:13;12.40;99.90
17599;DHT22;8918;52.092;5.232;2023-04-15T09:11:39;12.40;99.90
17599;DHT22;8918;52.092;5.232;2023-04-15T09:14:05;12.40;99.90
17599;DHT22;8918;52.092;5.232;2023-04-15T09:16:31;12.40;99.90
17599;DHT22;8918;52.092;5.232;2023-04-15T09:18:57;12.60;99.90
17599;DHT22;8918;52.092;5.232;2023-04-15T09:21:23;12.50;99.90
17599;DHT22;8918;52.092;5.232;2023-04-15T09:23:57;12.40;99.90
17599;DHT22;8918;52.092;5.232;2023-04-15T09:26:34;12.50;99.90
17599;DHT22;8918;52.092;5.232;2023-04-15T09:29:07;12.60;99.90
17599;DHT22;8918;52.092;5.232;2023-04-15T09:31:34;12.60;99.90
17599;DHT22;8918;52.092;5.232;2023-04-15T09:34:00;12.50;99.90
17599;DHT22;8918;52.092;5.232;2023-04-15T09:36:25;12.50;99.90
17599;DHT22;8918;52.092;5.232;2023-04-15T09:38:59;12.50;99.90
17599;DHT22;8918;52.092;5.232;2023-04-15T09:41:25;12.60;99.90
17599;DHT22;8918;52.092;5.232;2023-04-15T09:43:51;12.50;99.90
17599;DHT22;8918;52.092;5.232;2023-04-15T09:46:17;12.50;99.90
17599;DHT22;8918;52.092;5.232;2023-04-15T09:48:42;12.70;99.90
17599;DHT22;8918;52.092;5.232;2023-04-15T09:51:08;12.80;99.90
17599;DHT22;8918;52.092;5.232;2023-04-15T09:53:35;13.10;99.90
17599;DHT22;8918;52.092;5.232;2023-04-15T09:56:01;13.30;99.90
17599;DHT22;8918;52.092;5.232;2023-04-15T09:58:28;13.50;99.90
17599;DHT22;8918;52.092;5.232;2023-04-15T10:00:56;13.70;99.90
17599;DHT22;8918;52.092;5.232;2023-04-15T10:03:27;13.90;99.90
17599;DHT22;8918;52.092;5.232;2023-04-15T10:05:55;14.00;99.90
17599;DHT22;8918;52.092;5.232;2023-04-15T10:08:23;14.10;99.90
17599;DHT22;8918;52.092;5.232;2023-04-15T10:10:52;14.20;99.90
17599;DHT22;8918;52.092;5.232;2023-04-15T10:13:20;14.20;99.90
17599;DHT22;8918;52.092;5.232;2023-04-15T10:16:09;14.30;99.90
17599;DHT22;8918;52.092;5.232;2023-04-15T10:18:39;14.50;99.90
17599;DHT22;8918;52.092;5.232;2023-04-15T10:21:06;14.70;99.90
17599;DHT22;8918;52.092;5.232;2023-04-15T10:23:33;14.90;99.90
17599;DHT22;8918;52.092;5.232;2023-04-15T10:25:59;14.90;99.90
17599;DHT22;8918;52.092;5.232;2023-04-15T10:28:25;15.10;99.90
17599;DHT22;8918;52.092;5.232;2023-04-15T10:30:52;15.40;99.90
17599;DHT22;8918;52.092;5.232;2023-04-15T10:33:21;15.60;99.90
17599;DHT22;8918;52.092;5.232;2023-04-15T10:35:48;15.70;99.90
17599;DHT22;8918;52.092;5.232;2023-04-15T10:38:38;15.80;99.90
17599;DHT22;8918;52.092;5.232;2023-04-15T10:41:15;15.80;99.90
17599;DHT22;8918;52.092;5.232;2023-04-15T10:43:59;15.80;99.90
17599;DHT22;8918;52.092;5.232;2023-04-15T10:46:42;15.70;99.90
17599;DHT22;8918;52.092;5.232;2023-04-15T10:49:16;15.80;99.90
17599;DHT22;8918;52.092;5.232;2023-04-15T10:51:50;15.60;99.90
17599;DHT22;8918;52.092;5.232;2023-04-15T10:54:36;15.30;99.90
17599;DHT22;8918;52.092;5.232;2023-04-15T10:59:35;15.30;99.90
17599;DHT22;8918;52.092;5.232;2023-04-15T11:02:03;15.70;99.90
17599;DHT22;8918;52.092;5.232;2023-04-15T11:04:55;16.00;99.90
17599;DHT22;8918;52.092;5.232;2023-04-15T11:13:01;16.30;99.90
17599;DHT22;8918;52.092;5.232;2023-04-15T11:15:41;16.40;99.90
17599;DHT22;8918;52.092;5.232;2023-04-15T11:20:40;16.60;99.90
17599;DHT22;8918;52.092;5.232;2023-04-15T11:23:07;16.50;99.90
17599;DHT22;8918;52.092;5.232;2023-04-15T11:25:34;16.20;99.90
17599;DHT22;8918;52.092;5.232;2023-04-15T11:28:01;16.40;99.90
17599;DHT22;8918;52.092;5.232;2023-04-15T11:30:32;16.80;99.90
17599;DHT22;8918;52.092;5.232;2023-04-15T11:33:03;17.70;99.90
17599;DHT22;8918;52.092;5.232;2023-04-15T11:35:29;18.60;99.90
17599;DHT22;8918;52.092;5.232;2023-04-15T11:37:55;19.60;99.90
17599;DHT22;8918;52.092;5.232;2023-04-15T11:40:29;20.40;99.90
17599;DHT22;8918;52.092;5.232;2023-04-15T11:43:18;20.10;99.90
17599;DHT22;8918;52.092;5.232;2023-04-15T11:45:55;20.20;99.90
17599;DHT22;8918;52.092;5.232;2023-04-15T11:51:01;21.20;99.90
17599;DHT22;8918;52.092;5.232;2023-04-15T11:53:48;21.40;99.60
17599;DHT22;8918;52.092;5.232;2023-04-15T11:56:22;21.20;99.70
17599;DHT22;8918;52.092;5.232;2023-04-15T11:58:55;21.50;99.20
17599;DHT22;8918;52.092;5.232;2023-04-15T12:01:31;20.40;99.90
17599;DHT22;8918;52.092;5.232;2023-04-15T12:03:57;19.40;99.90
17599;DHT22;8918;52.092;5.232;2023-04-15T12:06:24;19.60;99.90
17599;DHT22;8918;52.092;5.232;2023-04-15T12:09:11;19.70;99.90
17599;DHT22;8918;52.092;5.232;2023-04-15T12:11:48;20.50;99.90
17599;DHT22;8918;52.092;5.232;2023-04-15T12:14:31;20.80;99.90
17599;DHT22;8918;52.092;5.232;2023-04-15T12:16:59;20.60;99.90
17599;DHT22;8918;52.092;5.232;2023-04-15T12:19:28;20.30;99.90
17599;DHT22;8918;52.092;5.232;2023-04-15T12:21:59;19.70;99.90
17599;DHT22;8918;52.092;5.232;2023-04-15T12:24:25;18.60;99.90
17599;DHT22;8918;52.092;5.232;2023-04-15T12:26:53;18.20;99.90
17599;DHT22;8918;52.092;5.232;2023-04-15T12:29:19;18.50;99.90
17599;DHT22;8918;52.092;5.232;2023-04-15T12:31:54;18.50;99.90
17599;DHT22;8918;52.092;5.232;2023-04-15T12:34:34;18.90;99.90
17599;DHT22;8918;52.092;5.232;2023-04-15T12:37:02;19.30;99.90
17599;DHT22;8918;52.092;5.232;2023-04-15T12:39:29;19.30;99.90
17599;DHT22;8918;52.092;5.232;2023-04-15T12:41:55;18.80;99.90
17599;DHT22;8918;52.092;5.232;2023-04-15T12:44:22;18.40;99.90
17599;DHT22;8918;52.092;5.232;2023-04-15T12:46:49;18.10;99.90
17599;DHT22;8918;52.092;5.232;2023-04-15T12:49:15;18.00;99.90
17599;DHT22;8918;52.092;5.232;2023-04-15T12:51:41;17.80;99.90
17599;DHT22;8918;52.092;5.232;2023-04-15T12:54:07;17.40;99.90
17599;DHT22;8918;52.092;5.232;2023-04-15T12:56:32;17.30;99.90
17599;DHT22;8918;52.092;5.232;2023-04-15T12:58:58;16.70;99.90
17599;DHT22;8918;52.092;5.232;2023-04-15T13:01:24;16.70;99.90
17599;DHT22;8918;52.092;5.232;2023-04-15T13:03:50;16.90;99.90
17599;DHT22;8918;52.092;5.232;2023-04-15T13:06:16;17.30;99.90
17599;DHT22;8918;52.092;5.232;2023-04-15T13:08:42;17.50;99.90
17599;DHT22;8918;52.092;5.232;2023-04-15T13:11:07;17.50;99.90
17599;DHT22;8918;52.092;5.232;2023-04-15T13:13:33;17.10;99.90
17599;DHT22;8918;52.092;5.232;2023-04-15T13:15:59;16.60;99.90
17599;DHT22;8918;52.092;5.232;2023-04-15T13:18:25;16.50;99.90
17599;DHT22;8918;52.092;5.232;2023-04-15T13:20:50;16.10;99.90
17599;DHT22;8918;52.092;5.232;2023-04-15T13:23:16;16.10;99.90
17599;DHT22;8918;52.092;5.232;2023-04-15T13:25:42;16.30;99.90
17599;DHT22;8918;52.092;5.232;2023-04-15T13:28:10;16.20;99.90
17599;DHT22;8918;52.092;5.232;2023-04-15T13:30:37;15.90;99.90
17599;DHT22;8918;52.092;5.232;2023-04-15T13:33:03;15.90;99.90
17599;DHT22;8918;52.092;5.232;2023-04-15T13:35:30;15.80;99.90
17599;DHT22;8918;52.092;5.232;2023-04-15T13:37:55;15.70;99.90
17599;DHT22;8918;52.092;5.232;2023-04-15T13:40:21;15.70;99.90
17599;DHT22;8918;52.092;5.232;2023-04-15T13:42:47;15.60;99.90
17599;DHT22;8918;52.092;5.232;2023-04-15T13:45:13;15.30;99.90
17599;DHT22;8918;52.092;5.232;2023-04-15T13:47:39;14.90;99.90
17599;DHT22;8918;52.092;5.232;2023-04-15T13:50:05;14.90;99.90
17599;DHT22;8918;52.092;5.232;2023-04-15T13:52:31;14.70;99.90
17599;DHT22;8918;52.092;5.232;2023-04-15T13:54:57;14.70;99.90
17599;DHT22;8918;52.092;5.232;2023-04-15T13:57:22;14.70;99.90
17599;DHT22;8918;52.092;5.232;2023-04-15T13:59:48;14.70;99.90
17599;DHT22;8918;52.092;5.232;2023-04-15T14:02:13;14.60;99.90
17599;DHT22;8918;52.092;5.232;2023-04-15T14:04:39;14.40;99.90
17599;DHT22;8918;52.092;5.232;2023-04-15T14:07:05;14.40;99.90
17599;DHT22;8918;52.092;5.232;2023-04-15T14:09:30;14.30;99.90
17599;DHT22;8918;52.092;5.232;2023-04-15T14:11:56;14.40;99.90
17599;DHT22;8918;52.092;5.232;2023-04-15T14:14:23;14.30;99.90
17599;DHT22;8918;52.092;5.232;2023-04-15T14:16:48;14.20;99.90
17599;DHT22;8918;52.092;5.232;2023-04-15T14:19:14;13.90;99.90
17599;DHT22;8918;52.092;5.232;2023-04-15T14:21:40;13.70;99.90
17599;DHT22;8918;52.092;5.232;2023-04-15T14:24:06;13.50;99.90
17599;DHT22;8918;52.092;5.232;2023-04-15T14:26:31;13.50;99.90
17599;DHT22;8918;52.092;5.232;2023-04-15T14:28:57;13.40;99.90
17599;DHT22;8918;52.092;5.232;2023-04-15T14:31:22;13.40;99.90
17599;DHT22;8918;52.092;5.232;2023-04-15T14:33:48;13.20;99.90
17599;DHT22;8918;52.092;5.232;2023-04-15T14:36:13;13.20;99.90
17599;DHT22;8918;52.092;5.232;2023-04-15T14:38:39;13.10;99.90
17599;DHT22;8918;52.092;5.232;2023-04-15T14:41:05;12.90;99.90
17599;DHT22;8918;52.092;5.232;2023-04-15T14:43:32;12.70;99.90
17599;DHT22;8918;52.092;5.232;2023-04-15T14:45:58;12.70;99.90
17599;DHT22;8918;52.092;5.232;2023-04-15T14:48:24;12.90;99.90
17599;DHT22;8918;52.092;5.232;2023-04-15T14:50:50;12.90;99.90
17599;DHT22;8918;52.092;5.232;2023-04-15T14:53:15;12.90;99.90
17599;DHT22;8918;52.092;5.232;2023-04-15T14:55:41;12.90;99.90
17599;DHT22;8918;52.092;5.232;2023-04-15T14:58:06;12.80;99.90
17599;DHT22;8918;52.092;5.232;2023-04-15T15:00:37;12.60;99.90
17599;DHT22;8918;52.092;5.232;2023-04-15T15:03:05;12.70;99.90
17599;DHT22;8918;52.092;5.232;2023-04-15T15:05:37;12.60;99.90
17599;DHT22;8918;52.092;5.232;2023-04-15T15:08:04;12.70;99.90
17599;DHT22;8918;52.092;5.232;2023-04-15T15:10:29;12.70;99.90
17599;DHT22;8918;52.092;5.232;2023-04-15T15:12:55;12.90;99.90
17599;DHT22;8918;52.092;5.232;2023-04-15T15:15:20;12.90;99.90
17599;DHT22;8918;52.092;5.232;2023-04-15T15:17:46;12.80;99.90
17599;DHT22;8918;52.092;5.232;2023-04-15T15:20:11;12.80;99.90
17599;DHT22;8918;52.092;5.232;2023-04-15T15:22:37;12.60;99.90
17599;DHT22;8918;52.092;5.232;2023-04-15T15:25:03;12.60;99.90
17599;DHT22;8918;52.092;5.232;2023-04-15T15:27:29;12.40;99.90
17599;DHT22;8918;52.092;5.232;2023-04-15T15:29:55;12.30;99.90
17599;DHT22;8918;52.092;5.232;2023-04-15T15:32:20;12.20;99.90
17599;DHT22;8918;52.092;5.232;2023-04-15T15:34:46;12.10;99.90
17599;DHT22;8918;52.092;5.232;2023-04-15T15:37:12;11.90;99.90
17599;DHT22;8918;52.092;5.232;2023-04-15T15:39:37;11.90;99.90
17599;DHT22;8918;52.092;5.232;2023-04-15T15:42:03;11.80;99.90
17599;DHT22;8918;52.092;5.232;2023-04-15T15:44:29;11.80;99.90
17599;DHT22;8918;52.092;5.232;2023-04-15T15:46:55;11.80;99.90
17599;DHT22;8918;52.092;5.232;2023-04-15T15:49:20;11.70;99.90
17599;DHT22;8918;52.092;5.232;2023-04-15T15:51:46;11.60;99.90
17599;DHT22;8918;52.092;5.232;2023-04-15T15:54:11;11.60;99.90
17599;DHT22;8918;52.092;5.232;2023-04-15T15:56:37;11.60;99.90
17599;DHT22;8918;52.092;5.232;2023-04-15T15:59:03;11.50;99.90
17599;DHT22;8918;52.092;5.232;2023-04-15T16:01:29;11.40;99.90
17599;DHT22;8918;52.092;5.232;2023-04-15T16:03:54;11.40;99.90
17599;DHT22;8918;52.092;5.232;2023-04-15T16:06:20;11.40;99.90